Kezdőlap
METAR-TAF:

METAR-TAF

Repülőterek :

Rimini, Olaszország

földrajzi szélesség: 44-02N, földrajzi hosszúság: 012-37E, magasság: 12 m

Jelenlegi meteorológiai megfigyelések

A jelentés 22 perccel ezelõtt készült, 07:20 UTC
Különbözõ irányokból fújó szél 2 kt
Hőmérséklet -3°C
Páratartalom 80%
Légköri nyomás 1016 hPa
Látótávolság 10 km, vagy több
felhőtlen 1500 m magasságban, és nincs gomolyfelhõ

METAR: LIPR 280720Z VRB02KT CAVOK M03/M06 Q1016

Idő: 08:42 (07:42 UTC)

Előrejelzés

A jelentés 2 órával és 42 perccel ezelõtt készült, 05:00 UTC
Az előrejelzés 28-én 06 óra UTC és 28-én 15 óra UTC között érvényes
Különbözõ irányokból fújó szél 5 kt
Látótávolság 10 km, vagy több
felhőtlen 1500 m magasságban, és nincs gomolyfelhõ

TAF: LIPR 280500Z 2806/2815 VRB05KT CAVOK

Meteorológiai megfigyelések és előrejelzések több, mint 4000 repülőtéren (METAR és TAF jelentéseket).

A térképen piros és sárga pontok jelzik az elérhető meteorológiai állomásokat.

Mozgassa az egeret a pont fölött, hogy megjelenjen az állomás neve.

Azután kattintson az időjárási megfigyelések és előrejelzések megtekintéséhez.

A térkép megváltoztatása: kattintson a fekete keresztel jelölt zöld gombra ráközelítéshez, a vonallal jelölt zöld gombra távolításhoz, vagy a zöld nyilakra a szomszédos térképek eléréséhez.


METAR-TAF: